Time;durP1;ratioP1;P1;durP2;ratioP2;P2;SDS_P1;SDS_P2;PMS_P1;PMS_P2;Temp;Humidity;BMP_temperature;BMP_pressure;BME280_temperature;BME280_humidity;BME280_pressure;Samples;Min_cycle;Max_cycle;Signal;HPM_P1;HPM_P2
2021/05/02 00:00:42;;;;;;;15.47;12.50;;;10.40;85.90;;;;;;6148544;23;20442;-88
2021/05/02 00:03:10;;;;;;;18.33;12.00;;;10.40;86.60;;;;;;6149351;23;21369;-88
2021/05/02 00:05:38;;;;;;;17.90;13.83;;;10.40;86.20;;;;;;6151640;23;20442;-86
2021/05/02 00:08:05;;;;;;;18.47;13.30;;;10.30;86.50;;;;;;6149814;23;20524;-87
2021/05/02 00:10:34;;;;;;;14.77;12.17;;;10.30;86.50;;;;;;6149384;23;20475;-87
2021/05/02 00:13:04;;;;;;;16.53;13.40;;;10.30;86.50;;;;;;6147806;23;20440;-87
2021/05/02 00:15:32;;;;;;;16.40;11.90;;;10.30;86.40;;;;;;6148883;23;20969;-87
2021/05/02 00:18:02;;;;;;;18.43;11.23;;;10.30;86.00;;;;;;6146371;23;20438;-87
2021/05/02 00:20:29;;;;;;;13.50;11.13;;;10.30;86.30;;;;;;6149381;23;21030;-87
2021/05/02 00:23:02;;;;;;;15.33;12.10;;;10.30;85.80;;;;;;6149910;23;20966;-87
2021/05/02 00:25:31;;;;;;;19.27;11.20;;;10.30;84.80;;;;;;6150006;23;21138;-87
2021/05/02 00:27:59;;;;;;;15.07;11.00;;;10.30;84.80;;;;;;6149570;23;20472;-86
2021/05/02 00:30:27;;;;;;;13.40;11.07;;;10.30;85.50;;;;;;6150083;23;20430;-87
2021/05/02 00:32:55;;;;;;;14.53;11.07;;;10.30;84.90;;;;;;6149596;23;20442;-87
2021/05/02 00:35:25;;;;;;;14.20;10.00;;;10.30;85.00;;;;;;6150766;23;20476;-87
2021/05/02 00:37:53;;;;;;;11.00;9.80;;;10.30;84.80;;;;;;6150939;23;20434;-88
2021/05/02 00:40:25;;;;;;;12.43;9.77;;;10.30;83.70;;;;;;6149552;23;20449;-88
2021/05/02 00:42:54;;;;;;;11.00;9.80;;;10.30;83.40;;;;;;6150986;23;20438;-88
2021/05/02 00:45:26;;;;;;;13.07;10.10;;;10.30;82.60;;;;;;6151965;23;20439;-89
2021/05/02 00:47:57;;;;;;;12.37;10.17;;;10.40;82.00;;;;;;6150754;23;20487;-87
2021/05/02 00:50:32;;;;;;;17.77;10.83;;;10.30;81.70;;;;;;6150029;23;20980;-88
2021/05/02 00:53:19;;;;;;;14.90;10.70;;;10.30;81.30;;;;;;6150693;23;20453;-88
2021/05/02 00:55:49;;;;;;;14.47;9.87;;;10.20;82.10;;;;;;6149427;23;20438;-87
2021/05/02 00:58:42;;;;;;;11.87;9.60;;;10.20;83.10;;;;;;6148546;23;20512;-87
2021/05/02 01:01:15;;;;;;;10.70;9.20;;;10.20;83.00;;;;;;6149128;23;20460;-88
2021/05/02 01:03:46;;;;;;;12.80;10.13;;;10.20;82.80;;;;;;6149328;23;20436;-88
2021/05/02 01:06:16;;;;;;;15.33;10.53;;;10.20;83.60;;;;;;6149486;23;20954;-88
2021/05/02 01:08:45;;;;;;;12.60;9.40;;;10.20;83.10;;;;;;6149111;23;20434;-88
2021/05/02 01:11:14;;;;;;;10.43;9.00;;;10.20;83.20;;;;;;6148393;23;20828;-87
2021/05/02 01:13:45;;;;;;;11.67;9.40;;;10.20;83.20;;;;;;6148531;23;20457;-87
2021/05/02 01:16:14;;;;;;;10.70;8.80;;;10.20;82.50;;;;;;6148649;23;20967;-84
2021/05/02 01:18:42;;;;;;;17.30;9.17;;;10.20;83.80;;;;;;6147824;23;20440;-85
2021/05/02 01:21:13;;;;;;;10.30;8.30;;;10.20;82.70;;;;;;6147740;23;20447;-85
2021/05/02 01:23:42;;;;;;;16.60;8.93;;;10.20;82.60;;;;;;6146967;23;20452;-85
2021/05/02 01:26:09;;;;;;;10.63;8.47;;;10.20;82.70;;;;;;6147363;23;21274;-85
2021/05/02 01:28:37;;;;;;;12.87;9.13;;;10.20;82.90;;;;;;6146903;23;20487;-85
2021/05/02 01:31:04;;;;;;;12.23;9.67;;;10.10;82.10;;;;;;6145966;23;20509;-85
2021/05/02 01:33:31;;;;;;;9.67;8.63;;;10.20;82.40;;;;;;6147111;23;20444;-85
2021/05/02 01:35:59;;;;;;;10.90;9.10;;;10.10;83.00;;;;;;6146598;23;20445;-85
2021/05/02 01:38:26;;;;;;;14.83;8.30;;;10.10;82.70;;;;;;6147066;23;20459;-85
2021/05/02 01:40:55;;;;;;;10.57;9.50;;;10.10;83.40;;;;;;6147414;23;20438;-85
2021/05/02 01:43:24;;;;;;;11.93;8.57;;;10.10;83.30;;;;;;6147104;23;20438;-85
2021/05/02 01:45:52;;;;;;;10.37;8.67;;;10.10;83.70;;;;;;6147464;23;20477;-86
2021/05/02 01:48:20;;;;;;;12.67;10.03;;;10.10;83.10;;;;;;6147491;23;20438;-85
2021/05/02 01:50:51;;;;;;;12.03;8.90;;;10.00;83.90;;;;;;6147238;23;20455;-85
2021/05/02 01:53:19;;;;;;;13.83;10.27;;;10.00;84.00;;;;;;6148977;23;20456;-85
2021/05/02 01:55:47;;;;;;;14.83;10.90;;;10.00;83.70;;;;;;6148952;23;20437;-85
2021/05/02 01:58:15;;;;;;;13.83;9.17;;;10.00;84.10;;;;;;6148664;23;20447;-85
2021/05/02 02:00:45;;;;;;;9.93;8.90;;;9.90;84.40;;;;;;6149853;23;20516;-85
2021/05/02 02:03:14;;;;;;;9.43;8.43;;;9.90;84.40;;;;;;6151458;23;20447;-85
2021/05/02 02:05:41;;;;;;;11.17;8.93;;;9.90;84.60;;;;;;6152315;23;20421;-85
2021/05/02 02:08:09;;;;;;;10.90;9.10;;;9.90;84.70;;;;;;6152329;23;20757;-86
2021/05/02 02:10:37;;;;;;;9.90;8.80;;;9.90;84.80;;;;;;6151690;23;20531;-86
2021/05/02 02:13:08;;;;;;;10.73;9.10;;;9.90;85.10;;;;;;6152175;23;20489;-85
2021/05/02 02:15:37;;;;;;;12.63;9.63;;;9.90;85.30;;;;;;6129234;23;20895;-86
2021/05/02 02:18:05;;;;;;;12.37;8.80;;;9.90;85.20;;;;;;6147738;23;20446;-85
2021/05/02 02:20:38;;;;;;;10.13;9.07;;;9.70;85.50;;;;;;6149662;23;20438;-85
2021/05/02 02:23:12;;;;;;;12.50;9.10;;;9.70;86.60;;;;;;6148908;23;20517;-86
2021/05/02 02:25:44;;;;;;;11.70;8.80;;;9.70;86.40;;;;;;6149400;23;20516;-85
2021/05/02 02:28:13;;;;;;;13.23;9.53;;;9.60;87.00;;;;;;6149139;23;20438;-86
2021/05/02 02:30:43;;;;;;;10.87;8.87;;;9.60;86.50;;;;;;6149031;23;20491;-86
2021/05/02 02:33:11;;;;;;;13.73;9.93;;;9.60;86.50;;;;;;6148903;23;20445;-86
2021/05/02 02:35:46;;;;;;;9.60;8.70;;;9.50;87.00;;;;;;6149490;23;20453;-85
2021/05/02 02:38:14;;;;;;;9.80;8.20;;;9.50;88.90;;;;;;6148924;23;20437;-85
2021/05/02 02:40:43;;;;;;;9.90;8.83;;;9.50;88.70;;;;;;6149156;23;20445;-86
2021/05/02 02:43:13;;;;;;;10.13;9.13;;;9.50;88.10;;;;;;6149642;23;20508;-82
2021/05/02 02:45:42;;;;;;;9.80;8.80;;;9.50;88.10;;;;;;6150249;23;20473;-85
2021/05/02 02:48:10;;;;;;;14.57;9.43;;;9.40;87.40;;;;;;6148633;23;20453;-85
2021/05/02 02:50:42;;;;;;;10.57;9.47;;;9.40;88.00;;;;;;6147856;23;20524;-85
2021/05/02 02:53:11;;;;;;;11.40;9.40;;;9.40;89.80;;;;;;6147942;23;21042;-85
2021/05/02 02:55:39;;;;;;;9.67;8.53;;;9.40;89.60;;;;;;6148183;23;20433;-84
2021/05/02 02:58:08;;;;;;;12.67;9.13;;;9.40;89.60;;;;;;6148621;23;20489;-85
2021/05/02 03:00:36;;;;;;;12.20;9.83;;;9.30;89.30;;;;;;6148175;23;20520;-85
2021/05/02 03:03:08;;;;;;;11.23;9.30;;;9.30;90.20;;;;;;6147429;23;20522;-85
2021/05/02 03:05:36;;;;;;;13.80;8.53;;;9.30;89.60;;;;;;6148445;23;20445;-85
2021/05/02 03:08:05;;;;;;;11.90;9.10;;;9.40;89.50;;;;;;6149032;23;20959;-86
2021/05/02 03:10:32;;;;;;;10.50;8.87;;;9.40;89.10;;;;;;6147679;23;20476;-85
2021/05/02 03:13:00;;;;;;;10.10;9.00;;;9.40;90.00;;;;;;6147938;23;20512;-85
2021/05/02 03:15:28;;;;;;;10.50;9.40;;;9.40;90.10;;;;;;6147560;23;20933;-85
2021/05/02 03:18:03;;;;;;;11.10;8.40;;;9.40;90.00;;;;;;6148959;23;21200;-86
2021/05/02 03:20:34;;;;;;;12.57;9.77;;;9.40;89.30;;;;;;6147806;23;20494;-86
2021/05/02 03:23:08;;;;;;;13.43;9.67;;;9.40;89.70;;;;;;6147710;23;20436;-85
2021/05/02 03:25:39;;;;;;;13.30;9.00;;;9.40;89.70;;;;;;6147127;23;20834;-85
2021/05/02 03:28:08;;;;;;;13.63;9.53;;;9.40;88.50;;;;;;6148016;23;21241;-85
2021/05/02 03:30:36;;;;;;;12.10;9.73;;;9.30;89.40;;;;;;6146586;23;20440;-85
2021/05/02 03:33:04;;;;;;;9.93;8.60;;;9.30;90.50;;;;;;6144779;23;20538;-85
2021/05/02 03:35:34;;;;;;;9.83;8.70;;;9.30;89.60;;;;;;6147885;23;20452;-85
2021/05/02 03:38:10;;;;;;;13.20;9.00;;;9.30;90.60;;;;;;6149501;23;20502;-85
2021/05/02 03:40:37;;;;;;;11.80;9.20;;;9.20;91.90;;;;;;6150465;23;20459;-85
2021/05/02 03:43:05;;;;;;;9.80;8.27;;;9.20;91.10;;;;;;6150683;23;20471;-85
2021/05/02 03:45:32;;;;;;;10.33;8.70;;;9.20;90.90;;;;;;6150310;23;20453;-86
2021/05/02 03:48:00;;;;;;;11.47;8.93;;;9.10;89.90;;;;;;6151251;23;20444;-86
2021/05/02 03:50:27;;;;;;;10.23;8.10;;;9.10;90.00;;;;;;6150859;23;20445;-87
2021/05/02 03:52:55;;;;;;;11.80;9.23;;;9.10;88.60;;;;;;6152627;23;20514;-87
2021/05/02 03:55:22;;;;;;;15.17;9.10;;;9.20;88.80;;;;;;6152128;23;20444;-87
2021/05/02 03:57:49;;;;;;;10.10;9.10;;;9.20;88.70;;;;;;6150621;23;20443;-87
2021/05/02 04:00:17;;;;;;;12.47;8.50;;;9.20;89.10;;;;;;6151488;23;20512;-86
2021/05/02 04:02:44;;;;;;;10.40;8.10;;;9.20;89.60;;;;;;6149893;23;21133;-86
2021/05/02 04:05:12;;;;;;;14.53;8.33;;;9.20;89.20;;;;;;6149270;23;20548;-87
2021/05/02 04:07:39;;;;;;;13.70;8.97;;;9.20;89.10;;;;;;6151104;23;20691;-85
2021/05/02 04:10:08;;;;;;;15.30;9.30;;;9.20;89.30;;;;;;6151994;23;21153;-85
2021/05/02 04:12:35;;;;;;;8.90;8.00;;;9.20;88.70;;;;;;6151498;23;21041;-86
2021/05/02 04:15:02;;;;;;;18.60;9.47;;;9.20;88.60;;;;;;6151731;23;20451;-85
2021/05/02 04:17:29;;;;;;;10.17;9.07;;;9.20;89.30;;;;;;6150968;23;20441;-86
2021/05/02 04:19:56;;;;;;;15.13;9.40;;;9.20;88.90;;;;;;6151646;23;20472;-86
2021/05/02 04:22:29;;;;;;;12.10;9.10;;;9.20;89.00;;;;;;6151502;23;20432;-86
2021/05/02 04:24:56;;;;;;;15.53;9.40;;;9.20;88.20;;;;;;6150738;23;20452;-86
2021/05/02 04:27:24;;;;;;;10.00;9.00;;;9.20;89.10;;;;;;6151083;23;20443;-86
2021/05/02 04:29:51;;;;;;;13.07;8.93;;;9.20;89.00;;;;;;6151550;23;20470;-86
2021/05/02 04:32:18;;;;;;;17.90;9.60;;;9.20;88.90;;;;;;6150147;23;20509;-86
2021/05/02 04:34:45;;;;;;;11.13;9.47;;;9.30;89.40;;;;;;6149559;23;20452;-87
2021/05/02 04:37:13;;;;;;;13.70;9.17;;;9.30;88.20;;;;;;6149405;23;20460;-86
2021/05/02 04:39:40;;;;;;;12.30;9.30;;;9.30;88.70;;;;;;6149802;23;20528;-86
2021/05/02 04:42:08;;;;;;;11.50;8.70;;;9.20;88.80;;;;;;6150307;23;20441;-86
2021/05/02 04:44:36;;;;;;;11.80;9.80;;;9.20;89.00;;;;;;6149486;23;20452;-85
2021/05/02 04:47:03;;;;;;;11.63;9.60;;;9.20;89.00;;;;;;6150168;23;20445;-86
2021/05/02 04:49:30;;;;;;;11.63;10.33;;;9.20;89.20;;;;;;6149677;23;20444;-88
2021/05/02 04:51:57;;;;;;;10.93;9.83;;;9.20;88.80;;;;;;6128383;23;20478;-85
2021/05/02 04:54:24;;;;;;;15.50;11.60;;;9.20;88.60;;;;;;6133697;23;20452;-86
2021/05/02 04:56:51;;;;;;;14.60;10.87;;;9.20;89.20;;;;;;6132668;23;20452;-86
2021/05/02 04:59:18;;;;;;;14.77;10.83;;;9.20;89.50;;;;;;6129883;23;20441;-86
2021/05/02 05:01:46;;;;;;;13.47;10.10;;;9.10;89.70;;;;;;6103138;23;20438;-85
2021/05/02 05:04:15;;;;;;;15.67;11.57;;;9.20;89.70;;;;;;6118428;23;20436;-85
2021/05/02 05:06:42;;;;;;;13.87;10.13;;;9.20;89.40;;;;;;6137220;23;20841;-85
2021/05/02 05:09:09;;;;;;;14.30;11.10;;;9.20;89.70;;;;;;6136605;23;20443;-85
2021/05/02 05:11:37;;;;;;;16.97;10.70;;;9.30;90.20;;;;;;6127047;23;20445;-85
2021/05/02 05:14:05;;;;;;;13.73;10.90;;;9.30;90.40;;;;;;6134110;23;20458;-85
2021/05/02 05:16:31;;;;;;;15.50;11.70;;;9.30;90.00;;;;;;6146550;23;21192;-85
2021/05/02 05:19:00;;;;;;;13.73;11.33;;;9.30;90.40;;;;;;6146241;23;20443;-85
2021/05/02 05:21:27;;;;;;;16.20;11.90;;;9.40;90.10;;;;;;6146601;23;20455;-86
2021/05/02 05:23:55;;;;;;;16.90;11.80;;;9.30;90.40;;;;;;6142020;23;20440;-85
2021/05/02 05:26:22;;;;;;;19.20;11.90;;;9.30;91.30;;;;;;6117000;23;20449;-85
2021/05/02 05:28:49;;;;;;;15.83;12.90;;;9.30;90.90;;;;;;6135919;23;20444;-86
2021/05/02 05:31:16;;;;;;;16.17;11.87;;;9.20;91.10;;;;;;6144211;23;20436;-86
2021/05/02 05:33:43;;;;;;;18.23;13.10;;;9.20;91.70;;;;;;6129207;23;20452;-86
2021/05/02 05:36:11;;;;;;;19.13;12.37;;;9.10;91.80;;;;;;6128906;23;20827;-85
2021/05/02 05:38:38;;;;;;;17.53;13.23;;;9.10;92.30;;;;;;6128227;23;20456;-86
2021/05/02 05:41:05;;;;;;;20.00;12.67;;;9.00;92.10;;;;;;6116499;23;20436;-87
2021/05/02 05:43:32;;;;;;;20.60;12.87;;;9.00;92.70;;;;;;6130924;23;20533;-87
2021/05/02 05:45:59;;;;;;;25.33;15.47;;;9.00;93.00;;;;;;6131057;23;20509;-86
2021/05/02 05:48:26;;;;;;;21.07;14.33;;;9.00;93.50;;;;;;6146842;23;20502;-86
2021/05/02 05:50:53;;;;;;;19.57;14.73;;;9.00;93.20;;;;;;6148031;23;20494;-86
2021/05/02 05:53:20;;;;;;;18.77;13.87;;;9.00;93.90;;;;;;6148488;23;20447;-86
2021/05/02 05:55:47;;;;;;;20.03;13.17;;;9.10;93.80;;;;;;6133495;23;20445;-85
2021/05/02 05:58:14;;;;;;;20.93;13.00;;;9.10;92.70;;;;;;6117815;23;20524;-86
2021/05/02 06:00:42;;;;;;;17.97;13.37;;;9.10;91.90;;;;;;6132356;23;20956;-86
2021/05/02 06:03:09;;;;;;;18.23;13.57;;;9.10;92.70;;;;;;6144315;23;20480;-86
2021/05/02 06:05:36;;;;;;;17.80;13.20;;;9.10;92.20;;;;;;6132044;23;20472;-86
2021/05/02 06:08:04;;;;;;;17.80;11.73;;;9.20;91.90;;;;;;6125264;23;20437;-86
2021/05/02 06:10:32;;;;;;;21.30;13.10;;;9.20;91.90;;;;;;6102970;23;20957;-85
2021/05/02 06:12:59;;;;;;;15.40;11.60;;;9.30;91.40;;;;;;6128403;23;20572;-85
2021/05/02 06:15:25;;;;;;;17.73;12.90;;;9.30;91.10;;;;;;6131178;23;20445;-85
2021/05/02 06:17:52;;;;;;;19.43;12.30;;;9.30;91.50;;;;;;6118863;23;20946;-85
2021/05/02 06:20:20;;;;;;;18.37;13.57;;;9.30;91.70;;;;;;6126606;23;20498;-86
2021/05/02 06:22:49;;;;;;;18.70;13.77;;;9.30;92.00;;;;;;6107905;23;20438;-85
2021/05/02 06:25:16;;;;;;;20.43;13.33;;;9.40;92.20;;;;;;6081966;23;20531;-86
2021/05/02 06:27:44;;;;;;;18.27;13.40;;;9.40;92.40;;;;;;6122574;23;20863;-87
2021/05/02 06:30:12;;;;;;;19.70;14.73;;;9.40;92.00;;;;;;6116193;23;20443;-86
2021/05/02 06:32:39;;;;;;;26.83;16.83;;;9.50;92.50;;;;;;6143958;23;20450;-87
2021/05/02 06:35:07;;;;;;;28.97;18.70;;;9.50;92.20;;;;;;6145456;23;20463;-87
2021/05/02 06:37:34;;;;;;;25.63;17.67;;;9.50;91.80;;;;;;6103845;23;20674;-86
2021/05/02 06:40:01;;;;;;;24.37;17.50;;;9.50;92.40;;;;;;6130785;23;20955;-86
2021/05/02 06:42:29;;;;;;;29.60;19.57;;;9.50;92.20;;;;;;6131203;23;20947;-87
2021/05/02 06:44:56;;;;;;;29.80;19.80;;;9.30;91.60;;;;;;6123791;23;20460;-86
2021/05/02 06:47:24;;;;;;;28.40;19.10;;;9.10;92.40;;;;;;6124457;23;20437;-87
2021/05/02 06:49:51;;;;;;;37.27;18.90;;;9.10;91.70;;;;;;6115469;23;20520;-87
2021/05/02 06:52:18;;;;;;;27.40;17.87;;;9.00;92.60;;;;;;6132021;23;20779;-86
2021/05/02 06:54:46;;;;;;;33.23;20.17;;;9.00;93.10;;;;;;6117377;23;20773;-86
2021/05/02 06:57:13;;;;;;;29.53;17.70;;;9.10;92.60;;;;;;6131645;23;20441;-87
2021/05/02 06:59:40;;;;;;;23.20;16.63;;;9.20;92.00;;;;;;6120525;23;20503;-86
2021/05/02 07:02:08;;;;;;;23.43;16.20;;;9.40;91.10;;;;;;6141635;23;20495;-87
2021/05/02 07:04:35;;;;;;;20.80;14.60;;;9.60;89.30;;;;;;6142125;23;20447;-87
2021/05/02 07:07:03;;;;;;;22.60;13.27;;;9.80;87.80;;;;;;6133990;23;20438;-87
2021/05/02 07:09:32;;;;;;;18.03;12.80;;;9.90;86.70;;;;;;6124844;23;20442;-87
2021/05/02 07:11:59;;;;;;;20.30;13.20;;;10.00;86.00;;;;;;6120732;23;20418;-87
2021/05/02 07:14:26;;;;;;;20.80;13.67;;;10.00;85.80;;;;;;6124780;23;20449;-87
2021/05/02 07:16:53;;;;;;;18.17;12.30;;;10.10;87.10;;;;;;6143465;23;20441;-87
2021/05/02 07:19:22;;;;;;;20.50;12.43;;;10.30;85.40;;;;;;6132397;23;20440;-87
2021/05/02 07:21:56;;;;;;;21.67;14.30;;;10.40;85.50;;;;;;6123960;23;20445;-87
2021/05/02 07:24:24;;;;;;;25.70;13.50;;;10.50;84.70;;;;;;6125869;23;21207;-87
2021/05/02 07:26:51;;;;;;;14.47;11.43;;;10.60;84.40;;;;;;6115962;23;21029;-86
2021/05/02 07:29:18;;;;;;;16.40;11.70;;;10.70;84.00;;;;;;6113856;23;20897;-87
2021/05/02 07:31:45;;;;;;;14.90;10.03;;;10.80;83.30;;;;;;6145283;23;20445;-87
2021/05/02 07:34:12;;;;;;;15.07;9.90;;;11.00;81.60;;;;;;6144219;23;20463;-87
2021/05/02 07:36:40;;;;;;;13.93;9.40;;;11.00;80.90;;;;;;6146016;23;20452;-87
2021/05/02 07:39:07;;;;;;;13.30;10.20;;;11.10;82.20;;;;;;6144513;23;20520;-87
2021/05/02 07:41:34;;;;;;;15.57;9.93;;;11.30;80.20;;;;;;6145392;23;20434;-87
2021/05/02 07:44:01;;;;;;;11.77;8.57;;;11.30;80.80;;;;;;6145715;23;20988;-86
2021/05/02 07:46:28;;;;;;;12.23;9.03;;;11.50;79.10;;;;;;6147600;23;20441;-87
2021/05/02 07:48:56;;;;;;;13.37;9.03;;;11.50;78.50;;;;;;6147349;23;20499;-86
2021/05/02 07:51:24;;;;;;;11.97;8.70;;;11.80;79.60;;;;;;6147303;23;20813;-87
2021/05/02 07:53:52;;;;;;;14.23;7.40;;;12.20;78.90;;;;;;6147303;23;20442;-86
2021/05/02 07:56:19;;;;;;;13.57;9.40;;;12.20;76.80;;;;;;6147765;23;20448;-87
2021/05/02 07:58:47;;;;;;;13.33;9.03;;;11.90;76.80;;;;;;6147606;23;20457;-87
2021/05/02 08:01:14;;;;;;;15.63;10.47;;;11.40;78.50;;;;;;6146906;23;20441;-87
2021/05/02 08:03:41;;;;;;;18.17;9.97;;;11.50;79.40;;;;;;6147322;23;21154;-87
2021/05/02 08:06:21;;;;;;;14.80;10.00;;;11.50;78.20;;;;;;6147437;23;20440;-87
2021/05/02 08:08:48;;;;;;;16.17;10.77;;;11.20;78.60;;;;;;6147534;23;20441;-86
2021/05/02 08:11:16;;;;;;;15.30;10.40;;;11.10;79.30;;;;;;6146456;23;20739;-87
2021/05/02 08:13:43;;;;;;;12.60;9.00;;;11.20;79.80;;;;;;6146189;23;20452;-87
2021/05/02 08:16:10;;;;;;;16.33;9.30;;;11.30;78.10;;;;;;6147166;23;20442;-87
2021/05/02 08:18:37;;;;;;;12.83;8.63;;;11.50;77.70;;;;;;6146347;23;20442;-87
2021/05/02 08:21:09;;;;;;;13.43;8.07;;;11.60;77.90;;;;;;6147484;23;20520;-87
2021/05/02 08:23:36;;;;;;;14.47;9.07;;;12.00;76.20;;;;;;6147540;23;20930;-86
2021/05/02 08:26:07;;;;;;;12.73;9.00;;;12.10;76.20;;;;;;6147800;23;20437;-87
2021/05/02 08:28:37;;;;;;;12.23;8.97;;;12.30;75.30;;;;;;6146163;23;20445;-87
2021/05/02 08:31:10;;;;;;;11.63;8.33;;;12.60;75.10;;;;;;6144079;23;20501;-87
2021/05/02 08:33:37;;;;;;;11.60;8.37;;;13.10;74.50;;;;;;6143905;23;20557;-87
2021/05/02 08:36:07;;;;;;;13.10;8.27;;;13.40;72.40;;;;;;6146987;23;20528;-87
2021/05/02 08:38:35;;;;;;;11.27;8.07;;;13.30;72.60;;;;;;6146300;23;20972;-86
2021/05/02 08:41:03;;;;;;;12.57;8.30;;;13.20;73.00;;;;;;6147206;23;20506;-87
2021/05/02 08:43:31;;;;;;;11.50;8.30;;;12.90;74.10;;;;;;6146038;23;20512;-87
2021/05/02 08:45:59;;;;;;;14.17;7.33;;;13.10;74.40;;;;;;6146534;23;20472;-87
2021/05/02 08:48:27;;;;;;;10.80;8.00;;;13.10;72.30;;;;;;6147139;23;20512;-87
2021/05/02 08:50:56;;;;;;;13.13;8.23;;;13.50;73.40;;;;;;6146556;23;20448;-87
2021/05/02 08:53:23;;;;;;;12.20;8.87;;;13.90;72.80;;;;;;6146230;23;20432;-87
2021/05/02 08:55:50;;;;;;;12.07;9.10;;;14.10;70.40;;;;;;6146761;23;20442;-86
2021/05/02 08:58:18;;;;;;;16.03;7.80;;;14.10;70.20;;;;;;6146566;23;20853;-86
2021/05/02 09:00:45;;;;;;;10.43;8.00;;;13.80;70.60;;;;;;6146878;23;20934;-87
2021/05/02 09:03:14;;;;;;;11.13;8.10;;;13.60;72.10;;;;;;6147887;23;20448;-86
2021/05/02 09:05:44;;;;;;;12.63;7.60;;;13.90;71.60;;;;;;6149163;23;20493;-86
2021/05/02 09:08:16;;;;;;;14.23;8.23;;;13.90;70.80;;;;;;6149016;23;20942;-86
2021/05/02 09:10:50;;;;;;;12.13;8.20;;;13.70;71.40;;;;;;6148820;23;20513;-87
2021/05/02 09:13:17;;;;;;;9.50;6.90;;;13.50;72.40;;;;;;6147496;23;20991;-87
2021/05/02 09:15:55;;;;;;;8.73;6.30;;;13.60;73.20;;;;;;6148280;23;20447;-87
2021/05/02 09:18:35;;;;;;;10.00;6.80;;;13.70;71.70;;;;;;6148684;23;20457;-87
2021/05/02 09:21:03;;;;;;;7.70;6.30;;;13.70;69.90;;;;;;6147689;23;20457;-87
2021/05/02 09:23:37;;;;;;;8.87;5.27;;;13.80;70.00;;;;;;6147462;23;20501;-87
2021/05/02 09:26:05;;;;;;;10.77;7.97;;;13.80;68.20;;;;;;6148363;23;20963;-87
2021/05/02 09:28:44;;;;;;;8.33;6.63;;;13.90;69.00;;;;;;6148748;23;20472;-86
2021/05/02 09:31:15;;;;;;;12.40;6.70;;;13.80;70.30;;;;;;6148634;23;20439;-86
2021/05/02 09:33:43;;;;;;;10.57;7.63;;;13.20;71.10;;;;;;6147125;23;20442;-86
2021/05/02 09:36:12;;;;;;;8.60;6.50;;;12.80;71.30;;;;;;6148188;23;20473;-86
2021/05/02 09:38:39;;;;;;;9.30;7.13;;;12.70;73.40;;;;;;6153567;23;20460;-87
2021/05/02 09:41:08;;;;;;;9.87;7.80;;;12.70;74.00;;;;;;6150207;23;20515;-87
2021/05/02 09:43:43;;;;;;;8.77;6.80;;;12.80;72.80;;;;;;6148484;23;20942;-87
2021/05/02 09:46:26;;;;;;;8.20;6.20;;;13.00;73.00;;;;;;6122505;23;21258;-86
2021/05/02 09:49:01;;;;;;;10.40;8.30;;;13.10;71.80;;;;;;6148195;23;20443;-87
2021/05/02 09:51:30;;;;;;;7.70;6.90;;;13.30;73.10;;;;;;6147266;23;20436;-86
2021/05/02 09:54:02;;;;;;;8.10;6.97;;;13.40;73.10;;;;;;6146888;23;20441;-87
2021/05/02 09:56:34;;;;;;;9.37;6.00;;;13.70;72.40;;;;;;6147999;23;20439;-87
2021/05/02 09:59:04;;;;;;;8.50;6.93;;;14.00;70.80;;;;;;6122921;23;20433;-88
2021/05/02 10:01:34;;;;;;;7.30;6.50;;;14.00;71.10;;;;;;6149679;23;20425;-87
2021/05/02 10:04:03;;;;;;;7.50;6.27;;;14.30;69.90;;;;;;6123004;23;20495;-87
2021/05/02 10:06:35;;;;;;;9.10;6.47;;;14.50;68.80;;;;;;6151647;23;20436;-88
2021/05/02 10:09:06;;;;;;;7.13;5.97;;;14.30;69.80;;;;;;6149854;23;20443;-87
2021/05/02 10:11:34;;;;;;;6.60;6.00;;;14.30;69.10;;;;;;6150287;23;20436;-88
2021/05/02 10:14:04;;;;;;;7.77;6.20;;;13.90;69.70;;;;;;6149596;23;20514;-89
2021/05/02 10:16:31;;;;;;;6.60;5.90;;;13.80;69.40;;;;;;6150453;23;21048;-86
2021/05/02 10:19:09;;;;;;;9.00;6.23;;;13.80;69.50;;;;;;6149698;23;20427;-87
2021/05/02 10:21:37;;;;;;;6.73;6.03;;;14.20;70.50;;;;;;6123984;23;20694;-88
2021/05/02 10:24:08;;;;;;;8.47;6.13;;;14.20;68.60;;;;;;6148802;23;20543;-87
2021/05/02 10:26:35;;;;;;;9.43;7.50;;;14.20;70.00;;;;;;6149629;23;20955;-88
2021/05/02 10:29:02;;;;;;;7.77;6.40;;;14.40;69.40;;;;;;6149134;23;20464;-87
2021/05/02 10:31:30;;;;;;;6.93;6.33;;;14.40;69.30;;;;;;6150195;23;20438;-87
2021/05/02 10:33:57;;;;;;;6.83;6.13;;;14.20;69.00;;;;;;6149414;23;20521;-86
2021/05/02 10:36:25;;;;;;;6.90;6.10;;;13.70;71.80;;;;;;6149083;23;20430;-87
2021/05/02 10:38:54;;;;;;;8.13;6.47;;;13.20;72.80;;;;;;6150362;23;20504;-87
2021/05/02 10:41:30;;;;;;;6.57;5.97;;;13.20;72.90;;;;;;6149459;23;20918;-87
2021/05/02 10:43:58;;;;;;;6.47;5.87;;;13.30;73.00;;;;;;6149800;23;20465;-87
2021/05/02 10:46:45;;;;;;;9.30;5.60;;;13.50;71.80;;;;;;6153302;23;20434;-86
2021/05/02 10:49:51;;;;;;;7.30;6.60;;;13.70;71.70;;;;;;6153662;23;20430;-87
2021/05/02 10:52:36;;;;;;;8.60;4.93;;;13.80;70.90;;;;;;6156873;23;20495;-86
2021/05/02 10:55:17;;;;;;;7.07;5.00;;;13.90;70.50;;;;;;6152369;23;20450;-87
2021/05/02 10:58:03;;;;;;;7.50;5.30;;;14.00;68.00;;;;;;6153047;23;20781;-87
2021/05/02 11:00:53;;;;;;;6.40;4.80;;;13.70;69.40;;;;;;6149122;23;20521;-87
2021/05/02 11:03:52;;;;;;;6.10;4.50;;;13.90;69.80;;;;;;6148448;23;20462;-86
2021/05/02 11:06:52;;;;;;;4.67;4.30;;;13.80;67.70;;;;;;6148592;23;20984;-88
2021/05/02 11:09:22;;;;;;;6.20;5.00;;;13.60;69.10;;;;;;6148641;23;20434;-87
2021/05/02 11:11:55;;;;;;;5.30;4.83;;;13.60;70.90;;;;;;6149208;23;20432;-86
2021/05/02 11:14:36;;;;;;;4.50;4.17;;;13.40;69.70;;;;;;6149268;23;20440;-86
2021/05/02 11:17:23;;;;;;;4.60;4.20;;;13.40;70.90;;;;;;6149677;23;20432;-85
2021/05/02 11:19:53;;;;;;;6.20;5.70;;;13.50;70.90;;;;;;6149771;23;20508;-85
2021/05/02 11:22:24;;;;;;;5.73;5.23;;;13.30;70.20;;;;;;6149793;23;20451;-85
2021/05/02 11:25:06;;;;;;;9.43;4.73;;;13.10;70.00;;;;;;6149260;23;20445;-85
2021/05/02 11:27:57;;;;;;;6.23;5.10;;;13.00;70.10;;;;;;6149518;23;20451;-86
2021/05/02 11:30:29;;;;;;;4.97;4.57;;;12.90;71.20;;;;;;6149227;23;20430;-85
2021/05/02 11:32:56;;;;;;;5.03;4.47;;;12.70;70.70;;;;;;6123492;23;20455;-85
2021/05/02 11:35:52;;;;;;;5.70;5.20;;;12.50;71.00;;;;;;6148056;23;20433;-86
2021/05/02 11:38:34;;;;;;;4.43;4.00;;;12.30;73.10;;;;;;6148501;23;20442;-87
2021/05/02 11:41:07;;;;;;;5.67;5.13;;;12.20;73.60;;;;;;6148527;23;21001;-86
2021/05/02 11:43:34;;;;;;;6.80;5.10;;;12.10;74.40;;;;;;6150144;23;20781;-86
2021/05/02 11:46:03;;;;;;;6.77;5.50;;;12.10;74.40;;;;;;6124801;23;20445;-86
2021/05/02 11:48:32;;;;;;;7.17;5.70;;;11.80;75.80;;;;;;6125026;23;20504;-83
2021/05/02 11:51:02;;;;;;;7.23;5.93;;;11.70;76.50;;;;;;6150688;23;20945;-83
2021/05/02 11:53:42;;;;;;;6.37;5.77;;;11.40;78.10;;;;;;6151468;23;20836;-84
2021/05/02 11:56:15;;;;;;;8.03;6.10;;;11.50;78.30;;;;;;6150307;23;20460;-84
2021/05/02 11:58:44;;;;;;;8.87;6.40;;;11.60;77.20;;;;;;6151217;23;20951;-84
2021/05/02 12:01:30;;;;;;;8.47;7.20;;;11.70;77.50;;;;;;6123214;23;20437;-84
2021/05/02 12:04:06;;;;;;;6.37;5.60;;;12.10;75.70;;;;;;6151403;23;20434;-83
2021/05/02 12:06:34;;;;;;;6.73;5.50;;;12.40;73.60;;;;;;6149213;23;20517;-83
2021/05/02 12:09:10;;;;;;;6.20;5.60;;;12.60;73.10;;;;;;6150979;23;20442;-84
2021/05/02 12:11:38;;;;;;;7.40;6.13;;;13.10;72.30;;;;;;6129319;23;20448;-84
2021/05/02 12:14:10;;;;;;;9.53;6.00;;;14.10;69.90;;;;;;6132639;23;20521;-85
2021/05/02 12:16:38;;;;;;;7.90;6.10;;;14.90;67.60;;;;;;6143626;23;20441;-85
2021/05/02 12:19:07;;;;;;;6.30;5.70;;;15.40;67.30;;;;;;6141587;23;20431;-84
2021/05/02 12:21:36;;;;;;;6.70;6.00;;;15.50;65.90;;;;;;6120043;23;20520;-85
2021/05/02 12:24:10;;;;;;;6.83;5.60;;;15.10;65.90;;;;;;6122094;23;20523;-85
2021/05/02 12:26:43;;;;;;;6.33;5.67;;;14.80;67.10;;;;;;6106149;23;20527;-84
2021/05/02 12:29:15;;;;;;;7.47;6.07;;;14.30;68.50;;;;;;6108772;23;20429;-84
2021/05/02 12:31:43;;;;;;;7.00;6.30;;;13.80;68.30;;;;;;6121208;23;20448;-84
2021/05/02 12:34:11;;;;;;;9.07;7.53;;;13.40;69.80;;;;;;6127933;23;20434;-84
2021/05/02 12:36:39;;;;;;;6.13;5.53;;;13.00;71.00;;;;;;6123459;23;20462;-84
2021/05/02 12:39:08;;;;;;;11.90;5.90;;;12.80;71.20;;;;;;6115406;23;20926;-84
2021/05/02 12:41:37;;;;;;;6.93;5.80;;;12.70;72.20;;;;;;6129178;23;20463;-84
2021/05/02 12:44:16;;;;;;;7.30;5.73;;;12.80;72.80;;;;;;6137182;23;20435;-84
2021/05/02 12:46:47;;;;;;;8.10;5.93;;;13.10;73.60;;;;;;6145516;23;20444;-84
2021/05/02 12:49:19;;;;;;;6.20;4.57;;;13.50;72.10;;;;;;6143829;23;20458;-84
2021/05/02 12:51:50;;;;;;;5.80;5.20;;;14.10;70.60;;;;;;6135947;23;20521;-84
2021/05/02 12:54:18;;;;;;;5.47;5.07;;;14.60;67.60;;;;;;6138413;23;20533;-83